Redondo Beach, Washington
Current Conditions -  °F | °C
As of 4:53 AM on Friday 19 Dec 2014 (Local Time) from KSEA Reporting Station
Broken Clouds Broken Clouds  
Wind Chill: 44°   Ceiling: 6000
Heat Index: 47°   Visibility: 10mi
Dew Point: 43°   Wind: 7mph
Humidity: 86%   Direction: 160°SSE
Pressure: 29.83"   Gusts: NA
Location:  47.4036°N, 122.309°W
Report Text: KSEA 191253Z 16006KT 10SM FEW046 BKN060 BKN150 08/06 A2983 RMK AO2 RAE1154 SLP110 T00830061
Loading
Personal Weather Stations






























Interactive Weather Map New forecast layout! Learn more

10-Day Weather Forecast

Advertisements
Track Severe Weather on mobile